Time;durP1;ratioP1;P1;durP2;ratioP2;P2;SDS_P1;SDS_P2;PMS_P1;PMS_P2;Temp;Humidity;BMP_temperature;BMP_pressure;BME280_temperature;BME280_humidity;BME280_pressure;Samples;Min_cycle;Max_cycle;Signal;HPM_P1;HPM_P2
2023/12/29 00:00:53;;;;;;;80.70;42.00;;;;;;;3.88;100.00;99009.42;272813;1269;22314;-88
2023/12/29 00:07:36;;;;;;;90.90;47.10;;;;;;;3.89;100.00;98999.16;273791;1270;22234;-90
2023/12/29 00:14:39;;;;;;;81.80;44.30;;;;;;;3.84;100.00;99004.55;274036;1274;22161;-88
2023/12/29 00:22:02;;;;;;;85.50;44.70;;;;;;;3.84;100.00;99007.54;274093;1273;22217;-88
2023/12/29 00:35:41;;;;;;;78.80;41.50;;;;;;;3.86;100.00;99008.01;273969;1274;22289;-89
2023/12/29 00:41:43;;;;;;;82.70;44.90;;;;;;;3.91;100.00;99003.41;273787;1274;22450;-89
2023/12/29 01:04:40;;;;;;;82.90;44.50;;;;;;;3.90;100.00;98964.33;273590;1274;22394;-89
2023/12/29 01:11:26;;;;;;;89.50;46.90;;;;;;;3.76;100.00;98964.09;271475;1270;22543;-89
2023/12/29 01:18:52;;;;;;;110.60;54.00;;;;;;;3.59;100.00;98968.02;272843;1270;22245;-88
2023/12/29 01:24:55;;;;;;;110.70;57.50;;;;;;;3.45;100.00;98971.96;273851;1267;22273;-89
2023/12/29 01:31:37;;;;;;;110.50;50.90;;;;;;;3.41;100.00;98969.35;273628;1273;23593;-88
2023/12/29 01:37:57;;;;;;;96.80;47.60;;;;;;;3.40;100.00;98967.66;273836;1275;22253;-90
2023/12/29 01:44:00;;;;;;;92.80;46.90;;;;;;;3.41;100.00;98956.10;273653;1270;22281;-89
2023/12/29 01:51:43;;;;;;;90.30;47.50;;;;;;;3.48;100.00;98944.22;273796;1276;22200;-89
2023/12/29 01:58:27;;;;;;;90.70;48.30;;;;;;;3.56;100.00;98932.55;273613;1276;22222;-89
2023/12/29 02:05:11;;;;;;;80.30;46.50;;;;;;;3.59;100.00;98929.36;273478;1276;22218;-89
2023/12/29 02:11:35;;;;;;;85.90;46.80;;;;;;;3.62;100.00;98927.90;273882;1275;22143;-89
2023/12/29 02:18:43;;;;;;;92.40;50.90;;;;;;;3.58;100.00;98912.61;273910;1276;22353;-89
2023/12/29 02:25:31;;;;;;;95.50;53.10;;;;;;;3.58;100.00;98899.74;273825;1268;22351;-88
2023/12/29 02:31:32;;;;;;;;;;;;;;;3.59;100.00;98898.42;273896;1257;22646;-89
2023/12/29 02:37:36;;;;;;;80.80;43.50;;;;;;;3.62;100.00;98891.08;272497;1272;23137;-89
2023/12/29 02:43:38;;;;;;;92.00;49.70;;;;;;;3.62;100.00;98888.26;273209;1269;22998;-89
2023/12/29 02:49:40;;;;;;;90.50;48.80;;;;;;;3.56;100.00;98888.46;273353;1270;22292;-88
2023/12/29 02:55:42;;;;;;;107.70;53.80;;;;;;;3.48;100.00;98883.52;273408;1267;22283;-89
2023/12/29 03:01:44;;;;;;;95.60;52.20;;;;;;;3.46;100.00;98871.95;273532;1269;22203;-91
2023/12/29 03:07:47;;;;;;;96.70;51.80;;;;;;;3.42;100.00;98867.91;273184;1270;22354;-89
2023/12/29 03:13:48;;;;;;;93.10;50.00;;;;;;;3.33;100.00;98864.09;273501;1269;23585;-88
2023/12/29 03:19:52;;;;;;;94.30;51.10;;;;;;;3.21;100.00;98857.34;273411;1269;23797;-88
2023/12/29 03:25:54;;;;;;;95.90;50.00;;;;;;;3.07;100.00;98860.82;273369;1270;22312;-89
2023/12/29 03:31:56;;;;;;;93.20;45.00;;;;;;;2.94;100.00;98852.83;273286;1269;22669;-89
2023/12/29 03:37:58;;;;;;;84.60;46.40;;;;;;;2.84;100.00;98836.20;273375;1269;23050;-89
2023/12/29 03:43:59;;;;;;;87.80;46.20;;;;;;;2.76;100.00;98832.50;273597;1270;23537;-89
2023/12/29 03:50:01;;;;;;;90.20;48.20;;;;;;;2.67;100.00;98833.38;273430;1272;23328;-90
2023/12/29 03:56:19;;;;;;;48.80;28.30;;;;;;;2.63;100.00;98829.36;273566;1270;22401;-89
2023/12/29 04:02:20;;;;;;;15.10;7.60;;;;;;;2.85;100.00;98825.21;273371;1270;22180;-89
2023/12/29 04:08:22;;;;;;;7.90;4.60;;;;;;;3.40;100.00;98828.95;273482;1273;22203;-90
2023/12/29 04:14:25;;;;;;;10.70;4.90;;;;;;;3.85;100.00;98821.84;273066;1269;23273;-90
2023/12/29 04:20:27;;;;;;;7.50;4.20;;;;;;;4.11;100.00;98818.94;273338;1273;22233;-89
2023/12/29 04:26:29;;;;;;;11.70;7.40;;;;;;;4.33;100.00;98822.92;271868;1276;22335;-89
2023/12/29 04:32:31;;;;;;;10.90;6.00;;;;;;;4.36;100.00;98821.87;273345;1272;22179;-90
2023/12/29 04:38:33;;;;;;;12.90;6.80;;;;;;;4.42;100.00;98821.04;273321;1269;23353;-89
2023/12/29 04:44:35;;;;;;;14.80;8.20;;;;;;;4.47;100.00;98810.34;273317;1264;23994;-90
2023/12/29 04:50:37;;;;;;;15.10;8.10;;;;;;;4.53;100.00;98801.34;273548;1269;22362;-89
2023/12/29 04:56:38;;;;;;;14.70;9.10;;;;;;;4.55;100.00;98791.05;273494;1269;22186;-89
2023/12/29 05:02:40;;;;;;;30.30;15.50;;;;;;;4.57;100.00;98792.02;273189;1269;22407;-90
2023/12/29 05:08:42;;;;;;;38.50;22.60;;;;;;;4.57;100.00;98792.95;273214;1269;22710;-89
2023/12/29 05:14:44;;;;;;;43.50;24.10;;;;;;;4.56;100.00;98794.32;273340;1269;22376;-89
2023/12/29 05:20:45;;;;;;;68.10;40.20;;;;;;;4.55;100.00;98784.54;272909;1271;22975;-89
2023/12/29 05:26:48;;;;;;;99.70;56.90;;;;;;;4.56;100.00;98785.89;272511;1269;23008;-89
2023/12/29 05:32:51;;;;;;;104.20;52.50;;;;;;;4.58;100.00;98795.70;273336;1270;23479;-90
2023/12/29 05:38:52;;;;;;;49.00;28.80;;;;;;;4.61;100.00;98795.48;273491;1270;22199;-90
2023/12/29 05:44:54;;;;;;;48.30;26.70;;;;;;;4.70;100.00;98801.89;273322;1269;22522;-90
2023/12/29 05:50:56;;;;;;;40.10;23.80;;;;;;;4.79;100.00;98802.17;273534;1269;22301;-89
2023/12/29 05:56:58;;;;;;;47.50;27.40;;;;;;;4.84;100.00;98810.84;273284;1270;22283;-89
2023/12/29 06:03:00;;;;;;;56.00;28.50;;;;;;;4.86;100.00;98812.98;273484;1270;22506;-89
2023/12/29 06:09:02;;;;;;;47.80;25.30;;;;;;;4.87;100.00;98807.91;273493;1269;23213;-90
2023/12/29 06:15:04;;;;;;;47.60;23.80;;;;;;;4.91;100.00;98812.61;273238;1270;22300;-89
2023/12/29 06:21:06;;;;;;;43.80;23.70;;;;;;;4.99;100.00;98804.77;273385;1270;22198;-88
2023/12/29 06:27:09;;;;;;;41.80;23.10;;;;;;;5.06;100.00;98808.45;273316;1270;22204;-88
2023/12/29 06:33:14;;;;;;;38.00;22.40;;;;;;;5.08;100.00;98811.23;273291;1269;22393;-90
2023/12/29 06:39:18;;;;;;;39.30;21.50;;;;;;;5.08;100.00;98808.61;273217;1269;22917;-88
2023/12/29 06:45:22;;;;;;;40.40;23.80;;;;;;;5.05;100.00;98817.52;273147;1269;22291;-89
2023/12/29 06:51:26;;;;;;;37.30;21.90;;;;;;;5.03;100.00;98813.20;273251;1269;23635;-89
2023/12/29 06:57:35;;;;;;;41.70;22.20;;;;;;;5.04;100.00;98820.42;272986;1269;23461;-88
2023/12/29 07:03:41;;;;;;;38.50;22.40;;;;;;;5.05;100.00;98829.30;273044;1269;22948;-89
2023/12/29 07:09:50;;;;;;;30.10;16.70;;;;;;;5.05;100.00;98821.02;272093;1269;22304;-90
2023/12/29 07:16:13;;;;;;;13.20;7.00;;;;;;;5.26;100.00;98817.58;272929;1269;22183;-90
2023/12/29 07:22:15;;;;;;;12.50;7.10;;;;;;;5.73;100.00;98811.17;273363;1269;22329;-89
2023/12/29 07:28:17;;;;;;;16.50;10.40;;;;;;;6.19;100.00;98808.82;273326;1269;22340;-89
2023/12/29 07:34:20;;;;;;;15.00;9.20;;;;;;;6.47;100.00;98816.34;273363;1269;22309;-88
2023/12/29 07:40:22;;;;;;;12.50;6.90;;;;;;;6.65;100.00;98824.70;273525;1268;22346;-88
2023/12/29 07:46:26;;;;;;;5.50;3.40;;;;;;;6.88;100.00;98814.67;273283;1269;22312;-88
2023/12/29 07:52:28;;;;;;;6.00;2.90;;;;;;;7.15;100.00;98807.59;273117;1269;22416;-88
2023/12/29 07:58:29;;;;;;;4.70;2.90;;;;;;;7.36;100.00;98801.97;273394;1269;22261;-90
2023/12/29 08:04:35;;;;;;;7.00;3.80;;;;;;;7.57;100.00;98812.13;273238;1269;22209;-88
2023/12/29 08:10:37;;;;;;;5.90;3.50;;;;;;;7.84;100.00;98813.02;273419;1269;22227;-89
2023/12/29 08:16:42;;;;;;;9.30;4.00;;;;;;;8.14;100.00;98810.07;273325;1269;168363;-91
2023/12/29 08:22:44;;;;;;;5.60;3.60;;;;;;;8.38;100.00;98809.76;273356;1270;22631;-88
2023/12/29 08:28:47;;;;;;;6.60;3.40;;;;;;;8.54;100.00;98819.12;273506;1269;22233;-90
2023/12/29 08:34:58;;;;;;;4.00;2.60;;;;;;;8.73;100.00;98823.23;273520;1264;23748;-91
2023/12/29 08:41:00;;;;;;;4.80;3.10;;;;;;;8.85;100.00;98831.23;270936;1269;22187;-90
2023/12/29 08:47:03;;;;;;;5.50;3.20;;;;;;;8.96;100.00;98834.77;273376;1269;22181;-89
2023/12/29 08:53:04;;;;;;;5.80;3.40;;;;;;;9.11;100.00;98836.38;273312;1270;22254;-89
2023/12/29 08:59:06;;;;;;;10.20;4.30;;;;;;;9.45;100.00;98836.77;273378;1269;22953;-89
2023/12/29 09:05:09;;;;;;;6.90;3.60;;;;;;;9.67;100.00;98839.70;273585;1269;22210;-91
2023/12/29 09:11:11;;;;;;;5.50;2.60;;;;;;;9.80;100.00;98843.91;270828;1269;22201;-90
2023/12/29 09:17:13;;;;;;;3.90;1.50;;;;;;;9.87;100.00;98845.23;273216;1269;22932;-90
2023/12/29 09:23:15;;;;;;;4.90;1.70;;;;;;;10.00;100.00;98842.27;273407;1270;22188;-91
2023/12/29 09:29:17;;;;;;;3.00;1.60;;;;;;;10.17;100.00;98834.27;273418;1269;23514;-91
2023/12/29 09:35:20;;;;;;;4.90;2.20;;;;;;;10.28;100.00;98833.91;273594;1269;23188;-89
2023/12/29 09:41:24;;;;;;;6.00;1.90;;;;;;;10.51;100.00;98817.14;271705;1269;22537;-89
2023/12/29 09:47:31;;;;;;;5.10;2.40;;;;;;;10.89;100.00;98810.40;271407;1269;23448;-90
2023/12/29 09:53:34;;;;;;;3.70;1.80;;;;;;;11.02;100.00;98798.13;273277;1269;22234;-90
2023/12/29 09:59:40;;;;;;;11.50;6.10;;;;;;;11.08;99.54;98792.84;273433;1269;22934;-90
2023/12/29 10:05:44;;;;;;;5.40;1.90;;;;;;;11.04;97.83;98784.35;273425;1269;22335;-90
2023/12/29 10:11:50;;;;;;;3.20;2.00;;;;;;;11.11;97.59;98779.00;273606;1268;23353;-90
2023/12/29 10:18:23;;;;;;;4.10;1.40;;;;;;;11.16;96.47;98774.88;273289;1269;22203;-91
2023/12/29 10:24:25;;;;;;;4.30;1.70;;;;;;;11.17;94.78;98770.12;273411;1269;22953;-90
2023/12/29 10:30:28;;;;;;;5.10;1.70;;;;;;;11.28;94.43;98768.37;273425;1269;22271;-90
2023/12/29 10:36:46;;;;;;;3.70;1.80;;;;;;;11.47;93.44;98762.10;273019;1269;22340;-91
2023/12/29 10:42:57;;;;;;;5.90;1.80;;;;;;;11.58;92.82;98755.80;272906;1269;22205;-92
2023/12/29 10:49:13;;;;;;;2.60;1.50;;;;;;;11.61;90.43;98751.36;271075;1269;23744;-89
2023/12/29 10:55:19;;;;;;;3.30;1.60;;;;;;;11.56;87.92;98747.96;272088;1269;22221;-90
2023/12/29 11:01:23;;;;;;;5.20;2.00;;;;;;;11.54;88.39;98739.17;272498;1268;22514;-90
2023/12/29 11:07:39;;;;;;;3.00;1.70;;;;;;;11.47;88.52;98735.86;271390;1269;22226;-90
2023/12/29 11:13:41;;;;;;;2.50;1.60;;;;;;;11.41;88.25;98732.23;273155;1269;22430;-89
2023/12/29 11:19:46;;;;;;;3.60;2.10;;;;;;;11.41;88.01;98735.45;273228;1262;22263;-90
2023/12/29 11:25:49;;;;;;;3.30;2.00;;;;;;;11.45;86.80;98723.65;272796;1269;22631;-90
2023/12/29 11:31:52;;;;;;;3.60;2.10;;;;;;;11.51;86.11;98726.72;272953;1269;23414;-89
2023/12/29 11:38:36;;;;;;;4.80;2.30;;;;;;;11.55;85.87;98726.57;273393;1269;22478;-89
2023/12/29 12:10:20;;;;;;;5.80;2.30;;;;;;;11.57;83.37;98721.17;264138;1296;2432941;-91
2023/12/29 12:16:47;;;;;;;3.80;2.40;;;;;;;11.50;81.65;98728.27;273676;1269;22310;-90
2023/12/29 12:22:53;;;;;;;4.40;2.50;;;;;;;11.39;81.62;98724.02;271520;1254;22384;-92
2023/12/29 12:28:54;;;;;;;4.20;2.60;;;;;;;11.29;81.76;98722.34;272723;1257;22534;-90
2023/12/29 12:34:56;;;;;;;5.40;2.70;;;;;;;11.22;81.54;98715.34;270245;1269;23446;-91
2023/12/29 12:40:57;;;;;;;3.80;2.60;;;;;;;11.16;81.21;98714.99;271872;1268;22511;-90
2023/12/29 12:47:02;;;;;;;4.90;2.90;;;;;;;11.14;81.82;98720.00;273296;1270;22409;-91
2023/12/29 12:53:09;;;;;;;5.20;2.70;;;;;;;11.16;81.89;98719.45;272767;1267;23350;-89
2023/12/29 12:59:10;;;;;;;4.80;3.10;;;;;;;11.17;81.71;98725.26;272842;1268;23164;-90
2023/12/29 13:05:11;;;;;;;5.00;2.90;;;;;;;11.15;81.52;98725.24;272586;1269;24224;-90
2023/12/29 13:11:12;;;;;;;7.40;3.50;;;;;;;11.03;81.69;98717.52;273428;1270;22379;-90
2023/12/29 13:17:16;;;;;;;6.50;3.40;;;;;;;10.89;81.91;98718.23;273655;1267;22389;-90
2023/12/29 13:23:18;;;;;;;7.60;4.50;;;;;;;10.75;82.13;98718.30;272330;1267;22988;-89
2023/12/29 13:29:28;;;;;;;5.60;3.60;;;;;;;10.63;82.40;98719.96;273310;1269;23419;-90
2023/12/29 13:35:34;;;;;;;4.20;2.60;;;;;;;10.56;81.69;98714.13;273269;1269;22426;-90
2023/12/29 13:41:36;;;;;;;5.00;2.80;;;;;;;10.51;81.41;98711.20;273492;1260;22443;-90
2023/12/29 13:47:41;;;;;;;3.70;2.30;;;;;;;10.43;80.84;98703.71;273662;1269;22227;-89
2023/12/29 13:53:42;;;;;;;3.30;2.20;;;;;;;10.34;80.60;98708.65;273486;1268;22533;-90
2023/12/29 13:59:43;;;;;;;3.80;2.10;;;;;;;10.21;80.68;98710.13;273561;1268;22441;-90
2023/12/29 14:05:51;;;;;;;7.10;3.40;;;;;;;10.09;80.54;98714.61;273653;1269;23024;-89
2023/12/29 14:11:53;;;;;;;6.00;3.00;;;;;;;10.02;80.44;98724.61;273606;1270;23166;-89
2023/12/29 14:17:57;;;;;;;4.90;2.30;;;;;;;9.89;80.26;98727.84;272679;1268;22392;-91
2023/12/29 14:24:00;;;;;;;5.90;3.00;;;;;;;9.77;80.15;98735.63;273659;1268;22710;-90
2023/12/29 14:30:01;;;;;;;8.10;3.40;;;;;;;9.69;80.08;98738.27;271672;1268;25428;-90
2023/12/29 14:36:03;;;;;;;7.20;3.20;;;;;;;9.60;79.91;98738.89;270550;1270;22611;-89
2023/12/29 14:42:05;;;;;;;6.50;3.00;;;;;;;9.47;80.03;98747.64;270563;1268;25442;-89
2023/12/29 14:48:06;;;;;;;6.50;2.70;;;;;;;9.29;80.11;98753.59;272004;1268;22455;-89
2023/12/29 14:54:07;;;;;;;8.20;3.40;;;;;;;9.12;80.16;98748.92;273092;1270;23956;-89
2023/12/29 15:00:11;;;;;;;5.40;3.50;;;;;;;8.98;80.19;98743.36;271362;1268;22539;-90
2023/12/29 15:06:12;;;;;;;5.90;3.50;;;;;;;8.77;80.38;98744.95;270727;1267;22488;-89
2023/12/29 15:12:13;;;;;;;6.90;3.90;;;;;;;8.59;80.77;98753.34;273653;1268;22386;-90
2023/12/29 15:18:16;;;;;;;8.00;4.30;;;;;;;8.39;81.01;98759.48;273616;1269;22813;-89
2023/12/29 15:24:18;;;;;;;23.00;10.20;;;;;;;8.22;80.75;98756.77;273423;1268;22471;-89
2023/12/29 15:30:25;;;;;;;21.90;11.20;;;;;;;7.98;81.66;98761.89;273610;1269;22346;-90
2023/12/29 15:36:36;;;;;;;18.80;9.30;;;;;;;7.76;82.14;98764.98;273824;1268;22593;-89
2023/12/29 15:42:39;;;;;;;21.80;9.00;;;;;;;7.55;82.95;98779.54;273718;1267;22279;-89
2023/12/29 15:48:51;;;;;;;24.60;10.50;;;;;;;7.42;83.07;98779.60;273677;1268;23570;-90
2023/12/29 15:54:55;;;;;;;22.50;12.20;;;;;;;7.35;83.17;98774.40;273625;1268;22487;-90
2023/12/29 16:00:57;;;;;;;40.60;18.70;;;;;;;7.34;83.59;98770.10;272624;1267;22517;-89
2023/12/29 16:06:58;;;;;;;25.60;13.00;;;;;;;7.32;83.88;98766.41;271336;1269;22420;-90
2023/12/29 16:12:59;;;;;;;20.80;9.30;;;;;;;7.29;84.13;98765.79;271014;1262;22515;-89
2023/12/29 16:19:00;;;;;;;18.50;9.10;;;;;;;7.33;84.49;98761.44;271303;1269;26711;-89
2023/12/29 16:25:03;;;;;;;15.70;7.90;;;;;;;7.33;84.63;98761.98;272268;1268;23301;-90
2023/12/29 16:31:09;;;;;;;13.20;7.50;;;;;;;7.29;84.94;98763.00;273080;1268;22557;-89
2023/12/29 16:37:11;;;;;;;16.60;7.80;;;;;;;7.20;85.18;98769.42;272292;1268;23134;-89
2023/12/29 16:43:12;;;;;;;14.50;7.40;;;;;;;7.09;85.67;98766.01;272474;1268;22375;-89
2023/12/29 16:49:13;;;;;;;16.90;7.40;;;;;;;7.04;86.04;98756.96;270788;1268;22267;-89
2023/12/29 16:55:40;;;;;;;14.70;8.50;;;;;;;7.01;86.25;98750.75;273510;1268;22181;-89
2023/12/29 17:01:42;;;;;;;17.20;8.40;;;;;;;7.13;86.62;98745.86;273557;1268;22227;-90
2023/12/29 17:07:43;;;;;;;12.10;6.80;;;;;;;7.23;86.87;98741.09;272964;1268;22640;-88
2023/12/29 17:13:45;;;;;;;13.50;6.90;;;;;;;7.29;86.96;98731.64;273546;1269;22375;-89
2023/12/29 17:19:49;;;;;;;15.20;7.80;;;;;;;7.37;87.09;98726.98;273552;1268;22298;-89
2023/12/29 17:25:52;;;;;;;12.70;6.40;;;;;;;7.48;87.34;98729.98;273619;1267;22283;-88
2023/12/29 17:31:53;;;;;;;13.80;6.80;;;;;;;7.61;87.59;98735.38;273727;1256;22413;-88
2023/12/29 17:37:54;;;;;;;13.70;6.30;;;;;;;7.79;87.80;98737.11;273761;1268;23379;-87
2023/12/29 17:43:56;;;;;;;14.20;6.00;;;;;;;7.94;87.95;98739.70;273150;1269;22527;-89
2023/12/29 17:49:57;;;;;;;10.30;5.90;;;;;;;8.04;87.91;98740.34;271026;1268;23305;-89
2023/12/29 17:56:02;;;;;;;10.40;5.60;;;;;;;8.13;88.06;98745.63;271452;1268;22586;-87
2023/12/29 18:02:03;;;;;;;9.80;5.40;;;;;;;8.22;88.21;98744.94;257761;1268;10004834;-89
2023/12/29 18:08:15;;;;;;;9.30;5.60;;;;;;;8.29;88.48;98749.83;272766;1268;22307;-90
2023/12/29 18:14:21;;;;;;;11.00;5.10;;;;;;;8.37;88.66;98747.68;272406;1260;22605;-88
2023/12/29 18:20:23;;;;;;;11.20;5.40;;;;;;;8.45;88.83;98743.69;271506;1256;23417;-88
2023/12/29 18:26:25;;;;;;;8.20;4.80;;;;;;;8.52;88.75;98746.45;271562;1268;22492;-88
2023/12/29 18:32:27;;;;;;;8.40;4.90;;;;;;;8.49;88.67;98745.45;272733;1270;22231;-88
2023/12/29 18:38:28;;;;;;;12.50;6.10;;;;;;;8.43;88.53;98747.70;273504;1269;22182;-89
2023/12/29 18:44:31;;;;;;;10.50;5.80;;;;;;;8.36;88.46;98744.25;273625;1268;23104;-89
2023/12/29 18:50:32;;;;;;;10.50;5.50;;;;;;;8.24;88.57;98743.51;273601;1268;22484;-88
2023/12/29 18:56:33;;;;;;;12.80;6.20;;;;;;;8.13;88.69;98738.23;273538;1268;22894;-90
2023/12/29 19:02:35;;;;;;;14.30;6.20;;;;;;;8.01;88.80;98733.84;273539;1268;22212;-89
2023/12/29 19:08:36;;;;;;;10.50;5.70;;;;;;;7.93;88.88;98732.60;272669;1258;23063;-90
2023/12/29 19:14:38;;;;;;;12.00;5.90;;;;;;;7.82;88.88;98733.58;273462;1268;23593;-89
2023/12/29 19:20:39;;;;;;;9.70;5.70;;;;;;;7.73;89.11;98735.84;273713;1262;22270;-89
2023/12/29 19:26:41;;;;;;;11.00;5.40;;;;;;;7.59;89.26;98740.64;272910;1268;23047;-88
2023/12/29 19:32:42;;;;;;;10.10;5.70;;;;;;;7.43;89.50;98740.48;273686;1268;23343;-89
2023/12/29 19:38:51;;;;;;;12.10;6.50;;;;;;;7.29;89.60;98733.58;273396;1267;22290;-89
2023/12/29 19:44:52;;;;;;;12.50;6.10;;;;;;;7.17;89.90;98733.96;272707;1268;22308;-89
2023/12/29 19:50:53;;;;;;;10.80;6.00;;;;;;;7.08;90.05;98738.22;271946;1268;22501;-89
2023/12/29 19:56:55;;;;;;;12.60;6.60;;;;;;;7.00;90.23;98740.01;272739;1259;23737;-88
2023/12/29 20:02:57;;;;;;;13.20;6.60;;;;;;;6.98;90.49;98741.20;271802;1268;22629;-89
2023/12/29 20:08:59;;;;;;;11.60;6.60;;;;;;;6.97;90.75;98737.90;273268;1268;23600;-89
2023/12/29 20:15:00;;;;;;;11.80;6.10;;;;;;;7.00;90.93;98739.28;273368;1268;22886;-90
2023/12/29 20:21:02;;;;;;;11.30;6.20;;;;;;;7.03;91.12;98735.39;272391;1268;24706;-89
2023/12/29 20:27:03;;;;;;;10.20;5.40;;;;;;;7.09;91.41;98731.88;271570;1268;23169;-88
2023/12/29 20:33:05;;;;;;;8.80;5.10;;;;;;;7.19;91.90;98724.90;271888;1269;22421;-89
2023/12/29 20:39:06;;;;;;;11.00;5.00;;;;;;;7.29;92.10;98719.98;272531;1268;24275;-88
2023/12/29 20:45:10;;;;;;;9.30;5.40;;;;;;;7.54;92.37;98717.42;272412;1268;23602;-88
2023/12/29 20:51:13;;;;;;;11.40;4.60;;;;;;;7.64;92.21;98718.93;273326;1269;22413;-89
2023/12/29 20:57:18;;;;;;;8.40;4.20;;;;;;;7.64;92.43;98717.38;273555;1268;22414;-88
2023/12/29 21:03:20;;;;;;;9.80;4.90;;;;;;;7.67;92.55;98712.05;273412;1268;23029;-89
2023/12/29 21:09:22;;;;;;;6.70;3.90;;;;;;;7.67;92.48;98708.39;273496;1268;22311;-90
2023/12/29 21:15:23;;;;;;;7.10;4.10;;;;;;;7.70;92.64;98704.55;272611;1268;22558;-89
2023/12/29 21:21:25;;;;;;;8.00;4.70;;;;;;;7.68;92.47;98702.97;271744;1268;23703;-90
2023/12/29 21:27:26;;;;;;;7.90;4.30;;;;;;;7.67;92.50;98706.45;272628;1268;23345;-89
2023/12/29 21:33:28;;;;;;;7.80;4.60;;;;;;;7.68;92.46;98710.75;273565;1258;22497;-88
2023/12/29 21:39:29;;;;;;;8.50;4.10;;;;;;;7.70;92.34;98716.16;273606;1259;22286;-88
2023/12/29 21:45:30;;;;;;;8.80;4.00;;;;;;;7.77;92.40;98713.79;272874;1268;22543;-88
2023/12/29 21:51:31;;;;;;;6.30;3.80;;;;;;;7.85;92.16;98715.41;271412;1268;23053;-89
2023/12/29 21:57:35;;;;;;;9.00;4.10;;;;;;;7.89;91.88;98717.43;272458;1269;22279;-89
2023/12/29 22:03:36;;;;;;;8.00;4.90;;;;;;;7.84;91.87;98712.36;273690;1268;22321;-88
2023/12/29 22:09:38;;;;;;;7.50;4.10;;;;;;;7.77;91.82;98700.70;272444;1265;22570;-90
2023/12/29 22:15:39;;;;;;;7.30;3.80;;;;;;;7.85;91.78;98694.64;273611;1268;22898;-89
2023/12/29 22:21:40;;;;;;;7.20;3.60;;;;;;;7.90;91.68;98687.63;273756;1268;22215;-89
2023/12/29 22:27:41;;;;;;;7.40;3.80;;;;;;;7.83;91.55;98683.14;273185;1265;22616;-89
2023/12/29 22:33:45;;;;;;;5.60;3.50;;;;;;;7.86;91.52;98681.33;273233;1269;22208;-91
2023/12/29 22:39:49;;;;;;;6.70;3.70;;;;;;;7.85;91.48;98675.15;273528;1269;23100;-90
2023/12/29 22:45:50;;;;;;;7.20;3.60;;;;;;;7.88;91.25;98668.44;272012;1270;22496;-90
2023/12/29 22:51:51;;;;;;;5.00;3.30;;;;;;;7.92;91.20;98666.70;270983;1269;22289;-88
2023/12/29 22:57:52;;;;;;;5.80;3.50;;;;;;;7.94;91.11;98662.77;273694;1268;22424;-89
2023/12/29 23:03:53;;;;;;;6.60;3.40;;;;;;;8.00;90.95;98653.52;273749;1268;22382;-89
2023/12/29 23:09:54;;;;;;;7.50;3.80;;;;;;;8.03;90.91;98644.91;273293;1268;22573;-89
2023/12/29 23:15:56;;;;;;;7.00;3.30;;;;;;;8.04;90.87;98646.33;273675;1268;22425;-88
2023/12/29 23:21:59;;;;;;;5.90;3.40;;;;;;;7.96;90.88;98639.28;271260;1269;23691;-89
2023/12/29 23:28:00;;;;;;;6.30;3.90;;;;;;;7.86;90.93;98638.20;273607;1268;22426;-90
2023/12/29 23:34:03;;;;;;;7.00;3.70;;;;;;;7.77;91.10;98639.98;271985;1265;22544;-89
2023/12/29 23:40:09;;;;;;;6.20;4.00;;;;;;;7.79;91.12;98635.34;270577;1269;25357;-88
2023/12/29 23:46:11;;;;;;;8.80;4.00;;;;;;;7.80;91.16;98641.59;270547;1268;23353;-88
2023/12/29 23:52:13;;;;;;;6.40;3.90;;;;;;;7.75;91.04;98640.58;272319;1271;22575;-90
2023/12/29 23:58:14;;;;;;;6.50;3.80;;;;;;;7.70;90.95;98652.17;273438;1268;23154;-90
